createdAt,value
2018-09-27T00:01:10.520Z,15.47
2018-09-27T00:03:40.888Z,16.23
2018-09-27T00:06:11.224Z,12.20
2018-09-27T00:08:42.022Z,17.27
2018-09-27T00:11:12.419Z,13.63
2018-09-27T00:13:43.822Z,12.23
2018-09-27T00:16:14.120Z,13.03
2018-09-27T00:18:44.868Z,12.30
2018-09-27T00:21:15.322Z,17.33
2018-09-27T00:23:45.724Z,16.07
2018-09-27T00:26:15.837Z,11.70
2018-09-27T00:28:46.289Z,15.30
2018-09-27T00:31:16.339Z,15.03
2018-09-27T00:33:46.904Z,15.03
2018-09-27T00:36:17.265Z,14.57
2018-09-27T00:38:47.145Z,13.43
2018-09-27T00:41:17.511Z,13.03
2018-09-27T00:43:47.666Z,14.27
2018-09-27T00:46:18.148Z,12.87
2018-09-27T00:48:48.687Z,15.90
2018-09-27T00:51:19.074Z,14.20
2018-09-27T00:53:49.531Z,13.90
2018-09-27T00:56:19.708Z,12.47
2018-09-27T00:58:50.225Z,14.83
2018-09-27T01:01:20.695Z,12.00
2018-09-27T01:03:50.590Z,14.10
2018-09-27T01:06:20.562Z,16.17
2018-09-27T01:08:50.690Z,15.70
2018-09-27T01:11:20.617Z,11.67
2018-09-27T01:13:50.599Z,13.67
2018-09-27T01:16:21.058Z,13.73
2018-09-27T01:18:51.214Z,13.93
2018-09-27T01:21:21.278Z,12.93
2018-09-27T01:23:51.992Z,16.33
2018-09-27T01:26:22.362Z,13.07
2018-09-27T01:28:52.593Z,13.60
2018-09-27T01:31:22.686Z,16.77
2018-09-27T01:33:52.765Z,13.03
2018-09-27T01:36:23.094Z,13.83
2018-09-27T01:38:53.162Z,16.60
2018-09-27T01:41:23.297Z,12.23
2018-09-27T01:43:53.649Z,13.67
2018-09-27T01:46:23.557Z,10.53
2018-09-27T01:48:53.789Z,14.00
2018-09-27T01:51:24.022Z,14.03
2018-09-27T01:53:54.258Z,12.83
2018-09-27T01:56:24.175Z,13.27
2018-09-27T01:58:54.462Z,11.50
2018-09-27T02:01:24.611Z,12.50
2018-09-27T02:03:55.346Z,11.50
2018-09-27T02:06:25.142Z,10.53
2018-09-27T02:08:54.941Z,16.77
2018-09-27T02:11:25.705Z,16.47
2018-09-27T02:13:55.536Z,14.10
2018-09-27T02:16:25.376Z,13.77
2018-09-27T02:18:55.289Z,14.13
2018-09-27T02:21:25.247Z,16.67
2018-09-27T02:23:55.129Z,18.40
2018-09-27T02:26:25.361Z,19.83
2018-09-27T02:28:55.544Z,14.87
2018-09-27T02:31:25.779Z,14.03
2018-09-27T02:33:55.909Z,19.07
2018-09-27T02:36:25.780Z,14.20
2018-09-27T02:38:57.295Z,13.27
2018-09-27T02:41:27.501Z,18.47
2018-09-27T02:43:57.369Z,24.00
2018-09-27T02:46:27.825Z,18.57
2018-09-27T02:48:57.689Z,19.03
2018-09-27T02:51:27.605Z,16.97
2018-09-27T02:53:57.506Z,12.30
2018-09-27T02:56:27.361Z,14.63
2018-09-27T02:58:57.582Z,16.17
2018-09-27T03:01:27.659Z,18.40
2018-09-27T03:03:57.964Z,20.87
2018-09-27T03:06:28.394Z,18.73
2018-09-27T03:08:58.301Z,20.17
2018-09-27T03:11:28.106Z,17.20
2018-09-27T03:13:58.897Z,17.00
2018-09-27T03:16:29.098Z,16.53
2018-09-27T03:18:59.055Z,20.73
2018-09-27T03:21:29.649Z,16.17
2018-09-27T03:23:59.862Z,15.23
2018-09-27T03:26:29.930Z,15.30
2018-09-27T03:29:00.511Z,16.60
2018-09-27T03:31:30.501Z,18.23
2018-09-27T03:34:00.823Z,21.30
2018-09-27T03:36:31.114Z,16.47
2018-09-27T03:39:00.981Z,20.07
2018-09-27T03:41:31.099Z,16.83
2018-09-27T03:44:00.973Z,19.70
2018-09-27T03:46:31.029Z,15.83
2018-09-27T03:49:01.773Z,17.53
2018-09-27T03:51:31.802Z,20.63
2018-09-27T03:54:01.650Z,22.60
2018-09-27T03:56:32.161Z,21.03
2018-09-27T03:59:03.465Z,16.23
2018-09-27T04:01:33.573Z,21.77
2018-09-27T04:04:04.252Z,21.83
2018-09-27T04:06:34.426Z,22.57
2018-09-27T04:09:04.513Z,21.53
2018-09-27T04:11:34.411Z,17.30
2018-09-27T04:14:04.558Z,18.90
2018-09-27T04:16:34.694Z,19.83
2018-09-27T04:19:04.812Z,21.30
2018-09-27T04:21:34.654Z,24.17
2018-09-27T04:24:04.612Z,19.47
2018-09-27T04:26:34.566Z,21.47
2018-09-27T04:29:04.415Z,21.77
2018-09-27T04:31:34.265Z,20.43
2018-09-27T04:34:04.291Z,19.13
2018-09-27T04:36:34.139Z,25.70
2018-09-27T04:39:04.565Z,26.33
2018-09-27T04:41:34.478Z,22.70
2018-09-27T04:44:04.473Z,28.67
2018-09-27T04:46:34.411Z,23.93
2018-09-27T04:49:05.034Z,25.00
2018-09-27T04:51:34.907Z,33.80
2018-09-27T04:54:04.973Z,25.47
2018-09-27T04:56:35.086Z,23.47
2018-09-27T04:59:05.003Z,30.27
2018-09-27T05:01:35.582Z,29.97
2018-09-27T05:04:05.729Z,29.30
2018-09-27T05:06:35.744Z,30.00
2018-09-27T05:09:08.154Z,29.17
2018-09-27T05:11:38.411Z,26.37
2018-09-27T05:14:08.457Z,35.13
2018-09-27T05:16:38.448Z,28.40
2018-09-27T05:19:08.388Z,30.33
2018-09-27T05:21:38.266Z,27.70
2018-09-27T05:24:08.178Z,29.10
2018-09-27T05:26:38.214Z,28.30
2018-09-27T05:29:08.023Z,27.37
2018-09-27T05:31:37.960Z,29.40
2018-09-27T05:34:08.076Z,29.20
2018-09-27T05:36:38.265Z,34.67
2018-09-27T05:39:09.938Z,29.30
2018-09-27T05:41:40.313Z,28.13
2018-09-27T05:44:10.432Z,33.00
2018-09-27T05:46:40.272Z,27.33
2018-09-27T05:49:40.080Z,26.67
2018-09-27T05:52:09.911Z,29.20
2018-09-27T05:54:39.815Z,29.53
2018-09-27T05:57:09.686Z,30.70
2018-09-27T05:59:39.649Z,24.77
2018-09-27T06:02:09.827Z,24.40
2018-09-27T06:04:40.582Z,27.73
2018-09-27T06:07:10.483Z,31.60
2018-09-27T06:09:40.641Z,21.33
2018-09-27T06:12:10.586Z,27.03
2018-09-27T06:14:40.580Z,27.13
2018-09-27T06:17:10.574Z,33.13
2018-09-27T06:19:40.439Z,26.50
2018-09-27T06:22:10.512Z,35.83
2018-09-27T06:24:40.365Z,34.17
2018-09-27T06:27:10.613Z,32.53
2018-09-27T06:29:40.415Z,26.83
2018-09-27T06:32:10.230Z,27.97
2018-09-27T06:34:40.064Z,33.27
2018-09-27T06:37:09.894Z,26.20
2018-09-27T06:39:40.071Z,25.77
2018-09-27T06:42:10.111Z,25.20
2018-09-27T06:44:39.962Z,21.13
2018-09-27T06:47:36.446Z,24.87
2018-09-27T06:50:07.647Z,25.40
2018-09-27T06:52:37.899Z,24.70
2018-09-27T06:55:10.189Z,25.47
2018-09-27T06:57:40.835Z,28.00
2018-09-27T07:00:14.858Z,21.50
2018-09-27T07:02:46.729Z,25.40
2018-09-27T07:05:16.603Z,21.33
2018-09-27T07:07:46.355Z,22.40
2018-09-27T07:10:16.940Z,26.20
2018-09-27T07:12:46.926Z,27.97
2018-09-27T07:15:16.704Z,26.00
2018-09-27T07:17:47.200Z,26.47
2018-09-27T07:20:17.062Z,27.73
2018-09-27T07:22:47.865Z,28.83
2018-09-27T07:25:18.067Z,34.07
2018-09-27T07:27:48.556Z,34.93
2018-09-27T07:30:23.219Z,24.50
2018-09-27T07:32:54.412Z,31.57
2018-09-27T07:35:24.518Z,25.13
2018-09-27T07:37:54.950Z,27.03
2018-09-27T07:40:24.984Z,29.80
2018-09-27T07:42:55.200Z,32.83
2018-09-27T07:45:25.003Z,29.20
2018-09-27T07:47:55.160Z,30.70
2018-09-27T07:50:25.013Z,34.03
2018-09-27T07:52:54.842Z,27.30
2018-09-27T07:55:24.642Z,30.63
2018-09-27T07:57:54.726Z,28.93
2018-09-27T08:00:25.070Z,33.83
2018-09-27T08:02:55.355Z,26.80
2018-09-27T08:05:25.125Z,34.07
2018-09-27T08:07:55.267Z,34.03
2018-09-27T08:10:25.198Z,30.97
2018-09-27T08:12:55.004Z,34.67
2018-09-27T08:15:24.810Z,34.13
2018-09-27T08:17:55.127Z,28.33
2018-09-27T08:20:25.012Z,35.27
2018-09-27T08:22:59.236Z,30.43
2018-09-27T08:25:29.383Z,28.87
2018-09-27T08:27:59.595Z,30.07
2018-09-27T08:30:30.299Z,28.40
2018-09-27T08:33:00.201Z,31.57
2018-09-27T08:35:29.996Z,26.77
2018-09-27T08:38:01.269Z,28.70
2018-09-27T08:40:31.284Z,30.97
2018-09-27T08:43:49.398Z,32.13
2018-09-27T08:46:19.853Z,27.70
2018-09-27T08:48:49.608Z,27.97
2018-09-27T08:51:19.487Z,29.73
2018-09-27T08:53:49.284Z,31.07
2018-09-27T08:56:19.301Z,24.53
2018-09-27T08:58:49.123Z,25.40
2018-09-27T09:01:19.030Z,28.23
2018-09-27T09:03:48.877Z,23.70
2018-09-27T09:06:18.707Z,24.37
2018-09-27T09:08:48.541Z,24.90
2018-09-27T09:11:18.637Z,24.40
2018-09-27T09:13:48.431Z,22.17
2018-09-27T09:16:18.600Z,22.70
2018-09-27T09:18:48.819Z,25.10
2018-09-27T09:21:18.662Z,19.20
2018-09-27T09:23:48.457Z,20.27
2018-09-27T09:26:18.768Z,18.60
2018-09-27T09:28:49.091Z,17.40
2018-09-27T09:31:18.919Z,20.47
2018-09-27T09:33:48.707Z,21.03
2018-09-27T09:36:18.923Z,21.40
2018-09-27T09:38:48.816Z,21.57
2018-09-27T09:41:18.660Z,19.90
2018-09-27T09:43:48.487Z,19.10
2018-09-27T09:46:18.814Z,17.57
2018-09-27T09:48:48.623Z,16.23
2018-09-27T09:51:18.455Z,18.67
2018-09-27T09:53:48.293Z,16.77
2018-09-27T09:56:18.198Z,17.73
2018-09-27T09:58:48.469Z,17.83
2018-09-27T10:01:18.351Z,19.40
2018-09-27T10:03:48.288Z,13.57
2018-09-27T10:06:18.415Z,13.30
2018-09-27T10:08:48.271Z,15.33
2018-09-27T10:11:18.062Z,15.13
2018-09-27T10:13:47.923Z,20.43
2018-09-27T10:16:17.724Z,15.73
2018-09-27T10:18:48.915Z,15.17
2018-09-27T10:21:18.963Z,18.03
2018-09-27T10:23:48.751Z,17.07
2018-09-27T10:26:18.511Z,14.17
2018-09-27T10:28:48.271Z,15.57
2018-09-27T10:31:18.064Z,15.60
2018-09-27T10:33:47.872Z,14.53
2018-09-27T10:36:18.060Z,14.97
2018-09-27T10:38:47.832Z,13.60
2018-09-27T10:41:17.618Z,14.57
2018-09-27T10:43:47.416Z,12.90
2018-09-27T10:46:17.207Z,14.13
2018-09-27T10:48:47.379Z,14.80
2018-09-27T10:51:17.287Z,13.70
2018-09-27T10:53:47.436Z,15.57
2018-09-27T10:56:17.322Z,13.90
2018-09-27T10:58:47.195Z,17.67
2018-09-27T11:01:17.173Z,20.13
2018-09-27T11:03:46.992Z,16.07
2018-09-27T11:06:16.822Z,14.20
2018-09-27T11:08:46.772Z,15.43
2018-09-27T11:11:16.609Z,20.70
2018-09-27T11:13:46.399Z,17.93
2018-09-27T11:16:16.211Z,19.87
2018-09-27T11:18:50.884Z,18.60
2018-09-27T11:21:20.796Z,15.90
2018-09-27T11:23:50.595Z,14.67
2018-09-27T11:26:20.386Z,18.63
2018-09-27T11:28:55.736Z,18.57
2018-09-27T11:31:40.287Z,19.20
2018-09-27T11:34:12.832Z,20.23
2018-09-27T11:36:42.956Z,19.90
2018-09-27T11:39:12.844Z,21.13
2018-09-27T11:41:45.879Z,17.20
2018-09-27T11:44:15.681Z,16.97
2018-09-27T11:46:45.509Z,17.70
2018-09-27T11:49:15.819Z,20.93
2018-09-27T11:51:48.358Z,17.87
2018-09-27T11:54:18.583Z,18.77
2018-09-27T11:56:48.808Z,21.97
2018-09-27T11:59:18.667Z,16.20
2018-09-27T12:01:48.496Z,19.13
2018-09-27T12:04:18.579Z,19.67
2018-09-27T12:06:51.297Z,17.00
2018-09-27T12:09:21.635Z,15.80
2018-09-27T12:11:51.443Z,19.17
2018-09-27T12:14:21.912Z,15.97
2018-09-27T12:16:51.819Z,17.40
2018-09-27T12:19:21.623Z,15.87
2018-09-27T12:21:51.432Z,17.57
2018-09-27T12:24:21.287Z,18.07
2018-09-27T12:26:52.046Z,15.97
2018-09-27T12:29:22.050Z,15.93
2018-09-27T12:31:51.843Z,14.97
2018-09-27T12:34:21.694Z,14.63
2018-09-27T12:36:52.585Z,14.80
2018-09-27T12:39:23.384Z,13.63
2018-09-27T12:41:53.303Z,17.43
2018-09-27T12:44:23.260Z,16.60
2018-09-27T12:46:53.125Z,17.43
2018-09-27T12:49:23.326Z,20.00
2018-09-27T12:51:53.540Z,14.63
2018-09-27T12:54:23.271Z,16.43
2018-09-27T12:56:53.480Z,14.30
2018-09-27T12:59:23.302Z,15.03
2018-09-27T13:01:53.271Z,16.53
2018-09-27T13:04:24.859Z,15.67
2018-09-27T13:06:54.804Z,13.30
2018-09-27T13:09:25.282Z,13.17
2018-09-27T13:11:56.280Z,14.30
2018-09-27T13:14:26.464Z,11.53
2018-09-27T13:16:56.520Z,14.47
2018-09-27T13:19:26.327Z,14.87
2018-09-27T13:21:56.166Z,12.37
2018-09-27T13:24:25.965Z,14.50
2018-09-27T13:27:03.658Z,14.87
2018-09-27T13:29:33.967Z,9.90
2018-09-27T13:32:03.893Z,12.53
2018-09-27T13:34:33.990Z,13.07
2018-09-27T13:37:03.977Z,15.77
2018-09-27T13:39:33.822Z,14.73
2018-09-27T13:42:03.813Z,12.27
2018-09-27T13:44:33.977Z,12.20
2018-09-27T13:47:04.085Z,13.80
2018-09-27T13:49:34.008Z,15.80
2018-09-27T13:52:03.826Z,11.77
2018-09-27T13:54:33.641Z,12.47
2018-09-27T13:57:03.560Z,12.57
2018-09-27T13:59:33.800Z,13.00
2018-09-27T14:02:03.603Z,12.40
2018-09-27T14:04:33.419Z,11.40
2018-09-27T14:07:03.363Z,13.40
2018-09-27T14:09:33.159Z,12.33
2018-09-27T14:12:02.943Z,11.10
2018-09-27T14:14:32.781Z,16.20
2018-09-27T14:17:02.646Z,11.57
2018-09-27T14:19:33.090Z,12.67
2018-09-27T14:22:02.951Z,14.00
2018-09-27T14:24:32.803Z,11.37
2018-09-27T14:27:02.622Z,12.73
2018-09-27T14:29:32.400Z,9.43
2018-09-27T14:32:02.751Z,11.67
2018-09-27T14:34:32.712Z,12.43
2018-09-27T14:37:02.556Z,10.20
2018-09-27T14:39:32.393Z,9.97
2018-09-27T14:42:02.172Z,10.63
2018-09-27T14:44:32.036Z,10.57
2018-09-27T14:47:02.214Z,10.17
2018-09-27T14:49:32.428Z,11.07
2018-09-27T14:52:02.214Z,11.87
2018-09-27T14:54:32.331Z,13.97
2018-09-27T14:57:02.142Z,10.87
2018-09-27T14:59:33.578Z,16.63
2018-09-27T15:02:04.200Z,14.47
2018-09-27T15:04:34.055Z,10.77
2018-09-27T15:07:03.907Z,12.70
2018-09-27T15:09:33.914Z,12.93
2018-09-27T15:12:03.757Z,14.57
2018-09-27T15:14:33.651Z,12.50
2018-09-27T15:17:03.494Z,10.40
2018-09-27T15:19:33.772Z,15.30
2018-09-27T15:22:03.576Z,14.83
2018-09-27T15:24:33.427Z,11.40
2018-09-27T15:27:03.252Z,9.60
2018-09-27T15:29:33.079Z,13.23
2018-09-27T15:32:03.934Z,15.77
2018-09-27T15:34:33.743Z,12.97
2018-09-27T15:37:03.542Z,13.90
2018-09-27T15:39:33.343Z,16.53
2018-09-27T15:42:03.143Z,9.17
2018-09-27T15:44:32.960Z,9.53
2018-09-27T15:47:02.823Z,10.17
2018-09-27T15:49:32.871Z,11.87
2018-09-27T15:52:02.724Z,9.97
2018-09-27T15:54:32.615Z,13.27
2018-09-27T15:57:02.435Z,13.27
2018-09-27T15:59:32.276Z,13.23
2018-09-27T16:02:02.394Z,11.83
2018-09-27T16:04:32.250Z,11.27
2018-09-27T16:07:02.086Z,10.90
2018-09-27T16:09:31.896Z,13.07
2018-09-27T16:12:01.723Z,12.00
2018-09-27T16:14:32.021Z,11.47
2018-09-27T16:17:01.873Z,12.80
2018-09-27T16:19:31.803Z,13.63
2018-09-27T16:22:01.840Z,12.50
2018-09-27T16:24:32.370Z,12.80
2018-09-27T16:27:02.579Z,10.13
2018-09-27T16:29:32.402Z,13.10
2018-09-27T16:32:02.752Z,11.93
2018-09-27T16:34:32.594Z,13.77
2018-09-27T16:37:02.401Z,13.47
2018-09-27T16:39:32.290Z,11.30
2018-09-27T16:42:03.407Z,12.90
2018-09-27T16:44:34.380Z,12.90
2018-09-27T16:47:04.202Z,16.90
2018-09-27T16:49:33.995Z,17.03
2018-09-27T16:52:03.831Z,18.67
2018-09-27T16:54:33.643Z,13.90
2018-09-27T16:57:03.455Z,14.47
2018-09-27T16:59:34.346Z,13.00
2018-09-27T17:02:05.776Z,15.63
2018-09-27T17:04:36.074Z,15.13
2018-09-27T17:07:06.794Z,17.47
2018-09-27T17:09:36.956Z,16.83
2018-09-27T17:12:07.186Z,15.60
2018-09-27T17:14:37.616Z,16.53
2018-09-27T17:17:07.797Z,18.37
2018-09-27T17:19:37.583Z,17.70
2018-09-27T17:22:08.050Z,19.73
2018-09-27T17:24:39.001Z,20.47
2018-09-27T17:27:09.244Z,16.43
2018-09-27T17:29:40.637Z,22.43
2018-09-27T17:32:10.640Z,18.70
2018-09-27T17:34:40.929Z,23.07
2018-09-27T17:37:10.832Z,28.27
2018-09-27T17:39:40.730Z,22.20
2018-09-27T17:42:11.184Z,24.37
2018-09-27T17:44:41.319Z,28.13
2018-09-27T17:47:11.133Z,20.33
2018-09-27T17:49:41.208Z,17.53
2018-09-27T17:52:11.030Z,18.30
2018-09-27T17:54:41.457Z,18.60
2018-09-27T17:57:22.961Z,18.93
2018-09-27T17:59:54.334Z,15.70
2018-09-27T18:02:24.867Z,21.77
2018-09-27T18:04:54.751Z,20.20
2018-09-27T18:07:24.664Z,21.90
2018-09-27T18:09:54.998Z,26.87
2018-09-27T18:12:25.887Z,24.53
2018-09-27T18:15:03.408Z,25.50
2018-09-27T18:17:35.865Z,21.57
2018-09-27T18:20:07.516Z,14.37
2018-09-27T18:22:42.889Z,13.20
2018-09-27T18:25:18.482Z,12.50
2018-09-27T18:27:54.198Z,13.60
2018-09-27T18:30:24.451Z,13.93
2018-09-27T18:32:54.367Z,11.03
2018-09-27T18:35:27.608Z,17.03
2018-09-27T18:37:57.842Z,14.37
2018-09-27T18:40:27.719Z,14.90
2018-09-27T18:42:58.138Z,13.67
2018-09-27T18:45:28.378Z,16.83
2018-09-27T18:47:58.197Z,15.00
2018-09-27T18:50:28.070Z,15.97
2018-09-27T18:52:58.249Z,20.13
2018-09-27T18:55:28.952Z,18.13
2018-09-27T18:57:58.752Z,19.03
2018-09-27T19:00:28.749Z,20.13
2018-09-27T19:02:58.966Z,18.83
2018-09-27T19:05:28.762Z,18.17
2018-09-27T19:07:58.748Z,20.93
2018-09-27T19:10:28.655Z,20.63
2018-09-27T19:12:58.467Z,21.73
2018-09-27T19:15:28.247Z,24.57
2018-09-27T19:17:58.055Z,23.27
2018-09-27T19:20:28.227Z,22.80
2018-09-27T19:22:58.851Z,25.33
2018-09-27T19:25:28.929Z,27.50
2018-09-27T19:27:58.837Z,28.23
2018-09-27T19:30:28.694Z,27.27
2018-09-27T19:32:59.204Z,28.47
2018-09-27T19:35:29.235Z,32.13
2018-09-27T19:37:59.170Z,33.27
2018-09-27T19:40:29.384Z,32.73
2018-09-27T19:42:59.435Z,35.23
2018-09-27T19:45:30.078Z,34.40
2018-09-27T19:48:00.254Z,34.93
2018-09-27T19:50:30.331Z,33.13
2018-09-27T19:53:00.873Z,33.77
2018-09-27T19:55:31.119Z,35.37
2018-09-27T19:58:01.508Z,34.47
2018-09-27T20:00:31.690Z,35.93
2018-09-27T20:03:01.786Z,32.30
2018-09-27T20:05:32.419Z,34.07
2018-09-27T20:08:03.456Z,30.20
2018-09-27T20:10:33.418Z,30.13
2018-09-27T20:13:03.924Z,34.53
2018-09-27T20:15:34.260Z,31.37
2018-09-27T20:18:04.067Z,32.80
2018-09-27T20:20:34.172Z,30.33
2018-09-27T20:23:04.729Z,34.70
2018-09-27T20:25:35.322Z,33.50
2018-09-27T20:28:05.160Z,29.67
2018-09-27T20:30:34.990Z,27.30
2018-09-27T20:33:04.795Z,28.20
2018-09-27T20:35:34.930Z,27.13
2018-09-27T20:38:06.068Z,23.90
2018-09-27T20:40:36.008Z,25.60
2018-09-27T20:43:05.907Z,23.53
2018-09-27T20:45:35.917Z,26.43
2018-09-27T20:48:05.753Z,24.47
2018-09-27T20:50:35.519Z,23.90
2018-09-27T20:53:06.072Z,26.93
2018-09-27T20:55:36.279Z,22.63
2018-09-27T20:58:06.799Z,21.53
2018-09-27T21:00:36.908Z,21.93
2018-09-27T21:03:07.025Z,21.23
2018-09-27T21:05:37.253Z,23.77
2018-09-27T21:08:07.409Z,20.23
2018-09-27T21:10:37.214Z,22.83
2018-09-27T21:13:07.467Z,19.80
2018-09-27T21:15:37.514Z,22.23
2018-09-27T21:18:07.571Z,22.17
2018-09-27T21:20:37.363Z,20.43
2018-09-27T21:23:07.628Z,19.50
2018-09-27T21:25:37.604Z,19.37
2018-09-27T21:28:07.697Z,19.57
2018-09-27T21:30:37.583Z,19.23
2018-09-27T21:33:07.552Z,20.27
2018-09-27T21:35:37.910Z,19.10
2018-09-27T21:38:08.486Z,18.67
2018-09-27T21:40:38.750Z,18.33
2018-09-27T21:43:09.145Z,21.57
2018-09-27T21:45:39.670Z,20.77
2018-09-27T21:48:09.915Z,20.53
2018-09-27T21:50:40.585Z,22.70
2018-09-27T21:53:10.718Z,19.07
2018-09-27T21:55:41.000Z,22.77
2018-09-27T21:58:11.246Z,23.50
2018-09-27T22:00:41.222Z,25.40
2018-09-27T22:03:11.432Z,28.03
2018-09-27T22:05:42.059Z,24.00
2018-09-27T22:08:12.783Z,27.03
2018-09-27T22:10:43.024Z,29.33
2018-09-27T22:13:14.051Z,29.57
2018-09-27T22:15:44.746Z,24.80
2018-09-27T22:18:15.363Z,30.73
2018-09-27T22:20:46.217Z,31.77
2018-09-27T22:23:16.834Z,31.33
2018-09-27T22:25:47.858Z,35.30
2018-09-27T22:28:18.341Z,33.17
2018-09-27T22:30:48.941Z,34.70
2018-09-27T22:33:19.443Z,38.83
2018-09-27T22:35:49.683Z,38.13
2018-09-27T22:38:20.016Z,41.97
2018-09-27T22:40:49.906Z,36.13
2018-09-27T22:43:19.815Z,37.40
2018-09-27T22:45:50.314Z,42.50
2018-09-27T22:48:20.598Z,38.67
2018-09-27T22:50:50.554Z,44.87
2018-09-27T22:53:20.496Z,50.43
2018-09-27T22:55:50.541Z,57.10
2018-09-27T22:58:20.905Z,55.50
2018-09-27T23:00:50.917Z,59.53
2018-09-27T23:03:20.838Z,63.50
2018-09-27T23:05:51.270Z,62.80
2018-09-27T23:08:21.526Z,73.10
2018-09-27T23:10:52.222Z,61.87
2018-09-27T23:13:23.224Z,61.63
2018-09-27T23:15:53.689Z,57.70
2018-09-27T23:18:23.774Z,48.40
2018-09-27T23:20:54.204Z,40.07
2018-09-27T23:23:24.854Z,35.63
2018-09-27T23:25:55.694Z,30.07
2018-09-27T23:28:25.613Z,30.43
2018-09-27T23:30:56.513Z,34.70
2018-09-27T23:33:26.461Z,30.40
2018-09-27T23:35:56.950Z,27.40
2018-09-27T23:38:26.860Z,17.13
2018-09-27T23:40:56.816Z,20.73
2018-09-27T23:43:27.145Z,23.60
2018-09-27T23:45:57.610Z,19.47
2018-09-27T23:48:28.163Z,24.57
2018-09-27T23:50:59.543Z,16.77
2018-09-27T23:53:29.836Z,21.03
2018-09-27T23:56:01.087Z,20.20
2018-09-27T23:58:31.509Z,23.90
